Barbados Meteorological Services
Auto gathered TAF list
Powered by Apparatus software
For Flight BW217
Contact Number 1-(246)-535-0021/2/3/4/5/6
WEB: http://www.barbadosweather.org

**********************************************

2022/12/04 18:40
TAF TVSA 041700Z 0418/0518 25006KT 9999 FEW022


**********************************************
2022/12/04 18:22
TAF TTPP 041600Z 0418/0518 VRB05KT 9999 SCT018
TEMPO 0418/0421 5000 SHRA BKN016 SCT036
FM042300 00000KT 9999 FEW016
FM051300 VRB05KT 9999 SCT018 SCT036


**********************************************
2022/12/04 18:22
TAF TTCP 041600Z 0418/0518 VRB05KT 9999 FEW017
TEMPO 0418/0421 5000 SHRA BKN016 SCT036
FM042300 00000KT 9999 FEW016
FM051300 VRB05KT 9999 FEW018


**********************************************
2022/12/04 18:06
TAF TNCM 041600Z 0418/0518 30005KT 9999 SCT018


**********************************************
2022/12/04 18:06
TAF TLPL 041700Z 0418/0518 07007KT 9999 SCT025 PROB30
TEMPO 0418/0424 SHRA FEW018TCU


**********************************************
2022/12/04 18:06
TAF TAF TLPC 041700Z 0418/0518 VRB03KT 9999 SCT025 PROB30
TEMPO 0418/0424 SHRA FEW018TCU


**********************************************
2022/12/04 18:42
TAF TJSJ 041735Z 0418/0518 35011KT P6SM VCSH SCT035 SCT060
FM042300 01009KT P6SM SCT030 SCT050
FM050400 34008KT P6SM VCSH SCT030 SCT045 SCT070
FM051400 02015KT P6SM VCSH FEW030 SCT050


**********************************************
2022/12/04 18:57
TAF TGPY 041600Z 0418/0518 VRB02KT 9999 SCT018 SCT036
BECMG 0500/0502 00000KT SCT018
BECMG 0510/0512 07010KT


**********************************************
2022/12/04 10:57
TAF
AMD TFFR 041054Z 0410/0506 CNL


**********************************************
2022/12/04 10:57
TAF TAF TFFF 041054Z 0410/0506 CNL


**********************************************
2022/12/04 18:40
TAF TDPD 041700Z 0418/0518 27008KT 9999 SCT020


**********************************************
2022/12/04 18:40
TAF TBPB 041700Z 0418/0518 15008KT 9999 SCT016
TEMPO 0418/0422 15015G25KT SHRA BKN014
BECMG 0500/0502 35015KT


**********************************************
2022/12/04 18:06
TAF TAPA 041700Z 0418/0518 VRB02KT 9999 FEW022


**********************************************
2022/12/04 18:25
TAF SYCJ 041700Z 0418/0518 19006KT 150V200 5000 RA VCSH FEW013CB SCT015 BKN032 OVC080
BECMG 0500/0503 16004KT 8000 -SHRA BKN015 BKN034 BKN080
BECMG 0511/0513 09008KT 9999 BKN018 BKN040


**********************************************
2022/12/04 18:13
TAF SVMI 041600Z 0418/0518 13007KT 9999 SCT016 TX32/0318Z TN23/0407Z
BECMG 0419/0423 06005KT 9000 -DZ BKN016


**********************************************
2022/12/04 21:00
TAF
AMD SOCA 042103Z 0421/0518 CNL


**********************************************
2022/12/04 18:13
TAF SMJP 041600Z 0418/0518 13005KT 9999 SCT015 SCT020 TX31/0517Z TN23/0509Z
TEMPO 0419/0422 4000 TSRA FEW015CB BKN020 PROB30
TEMPO 0508/0512 VRB02KT 2000 BR SCT002


**********************************************
2022/12/04 18:35
TAF MYNN 041630Z 0418/0518 08008KT 9999 SCT025 PROB40
TEMPO 0504/0511 VRB02KT FEW020


**********************************************
2022/12/04 18:15
TAF MKJP 041715Z 0418/0518 18010KT 9999 FEW022 PROB30
TEMPO 0418/0422 5000 SHRA BKN018
BECMG 0501/0503 35005KT
BECMG 0514/0516 18010KT


**********************************************